createdAt,value
2018-10-03T00:00:50.626Z,1003.44
2018-10-03T00:01:50.614Z,1003.36
2018-10-03T00:02:50.619Z,1003.40
2018-10-03T00:03:50.594Z,1003.34
2018-10-03T00:04:50.565Z,1003.33
2018-10-03T00:05:50.539Z,1003.32
2018-10-03T00:06:50.534Z,1003.34
2018-10-03T00:07:50.507Z,1003.32
2018-10-03T00:08:50.528Z,1003.35
2018-10-03T00:09:50.482Z,1003.39
2018-10-03T00:10:50.456Z,1003.35
2018-10-03T00:11:50.434Z,1003.34
2018-10-03T00:12:50.417Z,1003.30
2018-10-03T00:13:50.442Z,1003.29
2018-10-03T00:14:50.403Z,1003.30
2018-10-03T00:15:50.372Z,1003.39
2018-10-03T00:16:50.356Z,1003.39
2018-10-03T00:17:50.352Z,1003.43
2018-10-03T00:18:50.366Z,1003.44
2018-10-03T00:19:50.308Z,1003.44
2018-10-03T00:20:50.304Z,1003.49
2018-10-03T00:21:50.308Z,1003.47
2018-10-03T00:22:50.273Z,1003.51
2018-10-03T00:23:50.241Z,1003.51
2018-10-03T00:24:50.261Z,1003.51
2018-10-03T00:25:50.232Z,1003.52
2018-10-03T00:26:50.224Z,1003.50
2018-10-03T00:27:50.182Z,1003.50
2018-10-03T00:28:50.172Z,1003.54
2018-10-03T00:29:50.168Z,1003.55
2018-10-03T00:30:50.410Z,1003.58
2018-10-03T00:31:50.120Z,1003.56
2018-10-03T00:32:50.149Z,1003.57
2018-10-03T00:33:50.115Z,1003.52
2018-10-03T00:34:50.070Z,1003.46
2018-10-03T00:35:50.066Z,1003.52
2018-10-03T00:36:50.043Z,1003.52
2018-10-03T00:37:50.043Z,1003.51
2018-10-03T00:38:50.050Z,1003.47
2018-10-03T00:39:49.989Z,1003.51
2018-10-03T00:40:49.981Z,1003.48
2018-10-03T00:41:49.957Z,1003.55
2018-10-03T00:42:49.982Z,1003.49
2018-10-03T00:43:49.927Z,1003.53
2018-10-03T00:44:49.920Z,1003.54
2018-10-03T00:45:49.906Z,1003.54
2018-10-03T00:46:49.899Z,1003.59
2018-10-03T00:47:49.909Z,1003.59
2018-10-03T00:48:49.891Z,1003.54
2018-10-03T00:49:49.843Z,1003.60
2018-10-03T00:50:49.833Z,1003.62
2018-10-03T00:51:49.799Z,1003.59
2018-10-03T00:52:49.785Z,1003.62
2018-10-03T00:53:49.802Z,1003.62
2018-10-03T00:54:49.754Z,1003.61
2018-10-03T00:55:49.769Z,1003.64
2018-10-03T00:56:49.721Z,1003.64
2018-10-03T00:57:49.713Z,1003.67
2018-10-03T00:58:49.695Z,1003.68
2018-10-03T00:59:49.672Z,1003.63
2018-10-03T01:00:49.715Z,1003.68
2018-10-03T01:01:49.651Z,1003.68
2018-10-03T01:02:49.634Z,1003.68
2018-10-03T01:03:49.670Z,1003.67
2018-10-03T01:04:49.589Z,1003.63
2018-10-03T01:05:49.587Z,1003.65
2018-10-03T01:06:49.570Z,1003.66
2018-10-03T01:07:49.582Z,1003.64
2018-10-03T01:08:49.536Z,1003.68
2018-10-03T01:09:49.530Z,1003.70
2018-10-03T01:10:49.494Z,1003.74
2018-10-03T01:11:49.486Z,1003.75
2018-10-03T01:12:49.470Z,1003.72
2018-10-03T01:13:49.527Z,1003.79
2018-10-03T01:14:49.450Z,1003.77
2018-10-03T01:15:49.429Z,1003.77
2018-10-03T01:16:49.400Z,1003.78
2018-10-03T01:17:49.392Z,1003.80
2018-10-03T01:18:49.381Z,1003.73
2018-10-03T01:19:49.368Z,1003.73
2018-10-03T01:20:49.382Z,1003.83
2018-10-03T01:21:49.341Z,1003.83
2018-10-03T01:22:49.317Z,1003.83
2018-10-03T01:23:49.298Z,1003.86
2018-10-03T01:24:49.286Z,1003.84
2018-10-03T01:25:49.303Z,1003.87
2018-10-03T01:26:49.255Z,1003.87
2018-10-03T01:27:49.228Z,1003.87
2018-10-03T01:28:49.224Z,1003.91
2018-10-03T01:29:49.195Z,1003.87
2018-10-03T01:30:49.227Z,1003.88
2018-10-03T01:31:49.203Z,1003.91
2018-10-03T01:32:49.184Z,1003.91
2018-10-03T01:33:49.137Z,1003.94
2018-10-03T01:34:49.118Z,1003.94
2018-10-03T01:35:49.097Z,1003.94
2018-10-03T01:36:49.096Z,1003.93
2018-10-03T01:37:49.108Z,1003.91
2018-10-03T01:38:49.066Z,1003.93
2018-10-03T01:39:49.046Z,1003.94
2018-10-03T01:40:49.029Z,1003.93
2018-10-03T01:41:49.003Z,1003.94
2018-10-03T01:42:49.043Z,1003.97
2018-10-03T01:43:48.974Z,1003.93
2018-10-03T01:44:48.975Z,1003.93
2018-10-03T01:45:48.948Z,1003.98
2018-10-03T01:46:48.937Z,1003.95
2018-10-03T01:47:48.924Z,1003.95
2018-10-03T01:48:48.911Z,1004.00
2018-10-03T01:49:48.877Z,1003.93
2018-10-03T01:50:48.867Z,1003.92
2018-10-03T01:51:48.855Z,1003.97
2018-10-03T01:52:48.907Z,1003.99
2018-10-03T01:53:48.811Z,1003.98
2018-10-03T01:54:48.807Z,1004.00
2018-10-03T01:55:48.780Z,1003.99
2018-10-03T01:56:48.765Z,1003.98
2018-10-03T01:57:48.758Z,1003.97
2018-10-03T01:58:48.749Z,1003.94
2018-10-03T01:59:48.723Z,1003.99
2018-10-03T02:00:48.703Z,1004.00
2018-10-03T02:01:48.698Z,1003.95
2018-10-03T02:02:48.687Z,1003.92
2018-10-03T02:03:48.703Z,1003.90
2018-10-03T02:04:48.645Z,1003.96
2018-10-03T02:05:48.637Z,1003.96
2018-10-03T02:06:48.615Z,1003.96
2018-10-03T02:07:48.606Z,1003.97
2018-10-03T02:08:48.607Z,1004.07
2018-10-03T02:09:48.573Z,1004.01
2018-10-03T02:10:48.550Z,1004.00
2018-10-03T02:11:48.535Z,1004.00
2018-10-03T02:12:48.517Z,1003.94
2018-10-03T02:13:48.564Z,1003.96
2018-10-03T02:14:48.527Z,1003.99
2018-10-03T02:15:48.477Z,1004.00
2018-10-03T02:16:48.459Z,1003.99
2018-10-03T02:17:48.442Z,1003.96
2018-10-03T02:18:48.417Z,1004.00
2018-10-03T02:19:48.430Z,1004.02
2018-10-03T02:20:48.395Z,1004.03
2018-10-03T02:21:48.408Z,1004.00
2018-10-03T02:22:48.353Z,1004.01
2018-10-03T02:23:48.349Z,1003.99
2018-10-03T02:24:48.391Z,1003.99
2018-10-03T02:25:48.318Z,1004.01
2018-10-03T02:26:48.291Z,1004.02
2018-10-03T02:27:48.311Z,1003.99
2018-10-03T02:28:48.297Z,1004.01
2018-10-03T02:29:48.237Z,1004.01
2018-10-03T02:30:48.221Z,1004.00
2018-10-03T02:31:48.221Z,1003.97
2018-10-03T02:32:48.193Z,1004.01
2018-10-03T02:33:48.175Z,1004.01
2018-10-03T02:34:48.209Z,1004.03
2018-10-03T02:35:48.143Z,1004.01
2018-10-03T02:36:48.127Z,1004.00
2018-10-03T02:37:48.122Z,1004.03
2018-10-03T02:38:48.099Z,1004.04
2018-10-03T02:39:48.120Z,1004.02
2018-10-03T02:40:48.077Z,1004.01
2018-10-03T02:41:48.047Z,1004.02
2018-10-03T02:42:48.039Z,1004.03
2018-10-03T02:43:48.056Z,1004.02
2018-10-03T02:44:48.039Z,1004.06
2018-10-03T02:45:47.997Z,1004.10
2018-10-03T02:46:47.975Z,1004.10
2018-10-03T02:47:47.958Z,1004.09
2018-10-03T02:48:47.955Z,1004.13
2018-10-03T02:49:47.974Z,1004.10
2018-10-03T02:50:47.919Z,1004.14
2018-10-03T02:51:47.904Z,1004.09
2018-10-03T02:52:47.890Z,1004.10
2018-10-03T02:53:47.863Z,1004.18
2018-10-03T02:54:47.890Z,1004.20
2018-10-03T02:55:47.836Z,1004.17
2018-10-03T02:56:47.855Z,1004.21
2018-10-03T02:57:47.796Z,1004.18
2018-10-03T02:58:47.790Z,1004.22
2018-10-03T02:59:47.801Z,1004.16
2018-10-03T03:00:47.757Z,1004.19
2018-10-03T03:01:47.784Z,1004.15
2018-10-03T03:02:47.750Z,1004.20
2018-10-03T03:03:47.715Z,1004.16
2018-10-03T03:04:47.689Z,1004.18
2018-10-03T03:05:47.664Z,1004.19
2018-10-03T03:06:47.736Z,1004.14
2018-10-03T03:07:47.637Z,1004.12
2018-10-03T03:08:47.635Z,1004.10
2018-10-03T03:09:47.607Z,1004.10
2018-10-03T03:10:47.600Z,1004.14
2018-10-03T03:11:47.570Z,1004.15
2018-10-03T03:12:47.595Z,1004.20
2018-10-03T03:13:47.555Z,1004.19
2018-10-03T03:14:47.524Z,1004.21
2018-10-03T03:15:47.517Z,1004.22
2018-10-03T03:16:47.531Z,1004.28
2018-10-03T03:17:47.488Z,1004.29
2018-10-03T03:18:47.469Z,1004.33
2018-10-03T03:19:47.485Z,1004.30
2018-10-03T03:20:47.429Z,1004.22
2018-10-03T03:21:47.411Z,1004.29
2018-10-03T03:22:47.456Z,1004.24
2018-10-03T03:23:47.396Z,1004.33
2018-10-03T03:24:47.372Z,1004.31
2018-10-03T03:25:47.364Z,1004.33
2018-10-03T03:26:47.351Z,1004.31
2018-10-03T03:27:47.313Z,1004.29
2018-10-03T03:28:47.314Z,1004.30
2018-10-03T03:29:47.293Z,1004.30
2018-10-03T03:30:47.279Z,1004.31
2018-10-03T03:31:47.276Z,1004.33
2018-10-03T03:32:47.269Z,1004.35
2018-10-03T03:33:47.273Z,1004.32
2018-10-03T03:34:47.216Z,1004.36
2018-10-03T03:35:47.212Z,1004.41
2018-10-03T03:36:47.175Z,1004.40
2018-10-03T03:37:47.176Z,1004.43
2018-10-03T03:38:47.186Z,1004.44
2018-10-03T03:39:47.140Z,1004.39
2018-10-03T03:40:47.167Z,1004.39
2018-10-03T03:41:47.099Z,1004.37
2018-10-03T03:42:47.083Z,1004.41
2018-10-03T03:43:47.120Z,1004.41
2018-10-03T03:44:47.056Z,1004.41
2018-10-03T03:45:47.034Z,1004.43
2018-10-03T03:46:47.043Z,1004.45
2018-10-03T03:47:47.013Z,1004.43
2018-10-03T03:48:46.988Z,1004.41
2018-10-03T03:49:47.001Z,1004.45
2018-10-03T03:50:46.964Z,1004.42
2018-10-03T03:51:46.938Z,1004.41
2018-10-03T03:52:46.935Z,1004.38
2018-10-03T03:53:46.909Z,1004.37
2018-10-03T03:54:46.894Z,1004.34
2018-10-03T03:55:46.884Z,1004.28
2018-10-03T03:56:46.876Z,1004.30
2018-10-03T03:57:46.888Z,1004.29
2018-10-03T03:58:46.837Z,1004.30
2018-10-03T03:59:46.852Z,1004.35
2018-10-03T04:00:46.801Z,1004.37
2018-10-03T04:01:46.796Z,1004.34
2018-10-03T04:02:46.780Z,1004.35
2018-10-03T04:03:46.816Z,1004.37
2018-10-03T04:04:46.755Z,1004.35
2018-10-03T04:05:46.729Z,1004.39
2018-10-03T04:06:46.709Z,1004.44
2018-10-03T04:07:46.700Z,1004.49
2018-10-03T04:08:46.679Z,1004.47
2018-10-03T04:09:46.690Z,1004.53
2018-10-03T04:10:46.641Z,1004.57
2018-10-03T04:11:46.636Z,1004.57
2018-10-03T04:12:46.620Z,1004.62
2018-10-03T04:13:46.604Z,1004.62
2018-10-03T04:14:46.620Z,1004.67
2018-10-03T04:15:46.567Z,1004.67
2018-10-03T04:16:46.558Z,1004.71
2018-10-03T04:17:46.536Z,1004.73
2018-10-03T04:18:46.531Z,1004.72
2018-10-03T04:19:46.529Z,1004.74
2018-10-03T04:20:46.520Z,1004.70
2018-10-03T04:21:46.474Z,1004.69
2018-10-03T04:22:46.462Z,1004.70
2018-10-03T04:23:46.444Z,1004.72
2018-10-03T04:24:46.430Z,1004.73
2018-10-03T04:25:46.442Z,1004.78
2018-10-03T04:26:46.388Z,1004.75
2018-10-03T04:27:46.387Z,1004.79
2018-10-03T04:28:46.359Z,1004.80
2018-10-03T04:29:46.431Z,1004.83
2018-10-03T04:30:46.344Z,1004.88
2018-10-03T04:31:46.317Z,1004.91
2018-10-03T04:32:46.291Z,1004.89
2018-10-03T04:33:46.276Z,1004.85
2018-10-03T04:34:46.261Z,1004.92
2018-10-03T04:35:46.313Z,1004.87
2018-10-03T04:36:46.239Z,1004.89
2018-10-03T04:37:46.248Z,1004.91
2018-10-03T04:38:46.209Z,1004.90
2018-10-03T04:39:46.177Z,1004.87
2018-10-03T04:40:46.170Z,1004.86
2018-10-03T04:41:46.161Z,1004.91
2018-10-03T04:42:46.188Z,1004.94
2018-10-03T04:43:46.135Z,1004.92
2018-10-03T04:44:46.105Z,1004.96
2018-10-03T04:45:46.095Z,1004.93
2018-10-03T04:46:46.083Z,1004.98
2018-10-03T04:47:46.052Z,1004.95
2018-10-03T04:48:46.070Z,1004.92
2018-10-03T04:49:46.030Z,1004.97
2018-10-03T04:50:46.025Z,1004.96
2018-10-03T04:51:45.993Z,1004.99
2018-10-03T04:52:45.992Z,1005.00
2018-10-03T04:53:45.970Z,1005.03
2018-10-03T04:54:45.964Z,1005.03
2018-10-03T04:55:45.944Z,1005.01
2018-10-03T04:56:45.917Z,1005.06
2018-10-03T04:57:45.908Z,1005.02
2018-10-03T04:58:45.887Z,1005.02
2018-10-03T04:59:45.891Z,1005.03
2018-10-03T05:00:45.858Z,1005.01
2018-10-03T05:01:45.846Z,1005.14
2018-10-03T05:02:45.828Z,1005.10
2018-10-03T05:03:45.812Z,1005.10
2018-10-03T05:04:45.827Z,1005.14
2018-10-03T05:05:45.782Z,1005.22
2018-10-03T05:06:45.757Z,1005.22
2018-10-03T05:07:45.742Z,1005.16
2018-10-03T05:08:45.730Z,1005.18
2018-10-03T05:09:45.724Z,1005.20
2018-10-03T05:10:45.757Z,1005.29
2018-10-03T05:11:45.687Z,1005.27
2018-10-03T05:12:45.675Z,1005.35
2018-10-03T05:13:45.654Z,1005.35
2018-10-03T05:14:45.629Z,1005.37
2018-10-03T05:15:45.612Z,1005.40
2018-10-03T05:16:45.624Z,1005.42
2018-10-03T05:17:45.594Z,1005.44
2018-10-03T05:18:45.568Z,1005.40
2018-10-03T05:19:45.552Z,1005.45
2018-10-03T05:20:45.542Z,1005.47
2018-10-03T05:21:45.555Z,1005.49
2018-10-03T05:22:45.511Z,1005.47
2018-10-03T05:23:45.491Z,1005.54
2018-10-03T05:24:45.485Z,1005.54
2018-10-03T05:25:45.469Z,1005.55
2018-10-03T05:26:45.525Z,1005.53
2018-10-03T05:27:45.475Z,1005.60
2018-10-03T05:28:45.428Z,1005.58
2018-10-03T05:29:45.394Z,1005.64
2018-10-03T05:30:45.393Z,1005.65
2018-10-03T05:31:45.370Z,1005.66
2018-10-03T05:32:45.372Z,1005.65
2018-10-03T05:33:45.338Z,1005.73
2018-10-03T05:34:45.306Z,1005.72
2018-10-03T05:35:45.297Z,1005.68
2018-10-03T05:36:45.282Z,1005.69
2018-10-03T05:37:45.308Z,1005.68
2018-10-03T05:38:45.258Z,1005.70
2018-10-03T05:39:45.319Z,1005.75
2018-10-03T05:40:45.219Z,1005.74
2018-10-03T05:41:45.212Z,1005.81
2018-10-03T05:42:45.194Z,1005.75
2018-10-03T05:43:45.200Z,1005.77
2018-10-03T05:44:45.163Z,1005.78
2018-10-03T05:45:45.145Z,1005.87
2018-10-03T05:46:45.133Z,1005.88
2018-10-03T05:47:45.114Z,1005.90
2018-10-03T05:48:45.255Z,1005.90
2018-10-03T05:49:45.070Z,1005.93
2018-10-03T05:50:45.070Z,1005.95
2018-10-03T05:51:45.052Z,1005.98
2018-10-03T05:52:45.025Z,1005.98
2018-10-03T05:53:45.024Z,1006.01
2018-10-03T05:54:45.015Z,1005.99
2018-10-03T05:55:44.992Z,1005.99
2018-10-03T05:56:44.973Z,1005.93
2018-10-03T05:57:44.947Z,1006.01
2018-10-03T05:58:44.931Z,1006.05
2018-10-03T05:59:44.916Z,1006.01
2018-10-03T06:00:44.905Z,1006.08
2018-10-03T06:01:44.892Z,1006.02
2018-10-03T06:02:44.914Z,1006.08
2018-10-03T06:03:44.899Z,1006.08
2018-10-03T06:04:44.856Z,1006.14
2018-10-03T06:05:44.834Z,1006.08
2018-10-03T06:06:44.850Z,1006.15
2018-10-03T06:07:44.804Z,1006.17
2018-10-03T06:08:44.787Z,1006.18
2018-10-03T06:09:44.758Z,1006.20
2018-10-03T06:10:44.778Z,1006.15
2018-10-03T06:11:44.730Z,1006.20
2018-10-03T06:12:44.723Z,1006.23
2018-10-03T06:13:44.708Z,1006.21
2018-10-03T06:14:44.677Z,1006.24
2018-10-03T06:15:44.701Z,1006.26
2018-10-03T06:16:44.651Z,1006.25
2018-10-03T06:17:44.666Z,1006.27
2018-10-03T06:18:44.695Z,1006.28
2018-10-03T06:19:44.604Z,1006.32
2018-10-03T06:20:44.602Z,1006.28
2018-10-03T06:21:44.581Z,1006.30
2018-10-03T06:22:44.554Z,1006.35
2018-10-03T06:23:44.573Z,1006.35
2018-10-03T06:24:44.599Z,1006.44
2018-10-03T06:25:44.519Z,1006.47
2018-10-03T06:26:44.510Z,1006.49
2018-10-03T06:27:44.510Z,1006.49
2018-10-03T06:28:44.486Z,1006.52
2018-10-03T06:29:44.446Z,1006.55
2018-10-03T06:30:44.496Z,1006.54
2018-10-03T06:31:44.419Z,1006.56
2018-10-03T06:32:44.396Z,1006.57
2018-10-03T06:33:44.383Z,1006.60
2018-10-03T06:34:44.377Z,1006.61
2018-10-03T06:35:44.364Z,1006.67
2018-10-03T06:36:44.341Z,1006.67
2018-10-03T06:37:44.332Z,1006.67
2018-10-03T06:38:44.312Z,1006.65
2018-10-03T06:39:44.287Z,1006.68
2018-10-03T06:40:44.418Z,1006.70
2018-10-03T06:41:44.298Z,1006.72
2018-10-03T06:42:44.250Z,1006.69
2018-10-03T06:43:44.228Z,1006.73
2018-10-03T06:44:44.226Z,1006.71
2018-10-03T06:45:44.256Z,1006.69
2018-10-03T06:46:44.198Z,1006.77
2018-10-03T06:47:44.233Z,1006.75
2018-10-03T06:48:44.152Z,1006.78
2018-10-03T06:49:44.145Z,1006.77
2018-10-03T06:50:44.127Z,1006.74
2018-10-03T06:51:44.113Z,1006.78
2018-10-03T06:52:44.090Z,1006.83
2018-10-03T06:53:44.086Z,1006.87
2018-10-03T06:54:44.057Z,1006.92
2018-10-03T06:55:44.055Z,1006.91
2018-10-03T06:56:44.028Z,1006.92
2018-10-03T06:57:44.005Z,1006.96
2018-10-03T06:58:43.992Z,1006.98
2018-10-03T06:59:43.978Z,1007.03
2018-10-03T07:00:43.964Z,1007.07
2018-10-03T07:01:43.955Z,1007.03
2018-10-03T07:02:43.996Z,1007.12
2018-10-03T07:03:43.931Z,1007.09
2018-10-03T07:04:43.915Z,1007.04
2018-10-03T07:05:43.905Z,1007.14
2018-10-03T07:06:43.885Z,1007.14
2018-10-03T07:07:43.853Z,1007.16
2018-10-03T07:08:43.856Z,1007.20
2018-10-03T07:09:43.841Z,1007.20
2018-10-03T07:10:43.816Z,1007.24
2018-10-03T07:11:43.803Z,1007.22
2018-10-03T07:12:43.782Z,1007.24
2018-10-03T07:13:43.825Z,1007.25
2018-10-03T07:14:43.753Z,1007.28
2018-10-03T07:15:43.735Z,1007.23
2018-10-03T07:16:43.714Z,1007.31
2018-10-03T07:17:43.715Z,1007.28
2018-10-03T07:18:43.696Z,1007.34
2018-10-03T07:19:43.704Z,1007.26
2018-10-03T07:20:43.696Z,1007.41
2018-10-03T07:21:43.650Z,1007.37
2018-10-03T07:22:43.631Z,1007.38
2018-10-03T07:23:43.605Z,1007.37
2018-10-03T07:24:43.656Z,1007.38
2018-10-03T07:25:43.589Z,1007.33
2018-10-03T07:26:43.574Z,1007.44
2018-10-03T07:27:43.547Z,1007.46
2018-10-03T07:28:43.537Z,1007.51
2018-10-03T07:29:43.515Z,1007.54
2018-10-03T07:30:43.530Z,1007.49
2018-10-03T07:31:43.499Z,1007.56
2018-10-03T07:32:43.530Z,1007.50
2018-10-03T07:33:43.460Z,1007.47
2018-10-03T07:34:43.434Z,1007.54
2018-10-03T07:35:43.454Z,1007.52
2018-10-03T07:36:43.413Z,1007.56
2018-10-03T07:37:43.402Z,1007.57
2018-10-03T07:38:43.382Z,1007.58
2018-10-03T07:39:43.389Z,1007.57
2018-10-03T07:40:43.380Z,1007.59
2018-10-03T07:41:43.361Z,1007.53
2018-10-03T07:42:43.312Z,1007.46
2018-10-03T07:43:43.312Z,1007.55
2018-10-03T07:44:43.289Z,1007.56
2018-10-03T07:45:43.288Z,1007.63
2018-10-03T07:46:43.282Z,1007.71
2018-10-03T07:47:43.239Z,1007.57
2018-10-03T07:48:43.224Z,1007.65
2018-10-03T07:49:43.224Z,1007.60
2018-10-03T07:50:43.215Z,1007.67
2018-10-03T07:51:43.173Z,1007.72
2018-10-03T07:52:43.245Z,1007.76
2018-10-03T07:53:43.224Z,1007.74
2018-10-03T07:54:43.135Z,1007.78
2018-10-03T07:55:43.169Z,1007.79
2018-10-03T07:56:43.106Z,1007.77
2018-10-03T07:57:43.081Z,1007.83
2018-10-03T07:58:43.071Z,1007.85
2018-10-03T07:59:43.058Z,1007.92
2018-10-03T08:00:43.034Z,1008.02
2018-10-03T08:01:43.054Z,1007.98
2018-10-03T08:02:43.012Z,1007.99
2018-10-03T08:03:42.993Z,1007.99
2018-10-03T08:04:42.982Z,1008.02
2018-10-03T08:05:42.977Z,1008.02
2018-10-03T08:06:42.973Z,1007.94
2018-10-03T08:07:42.941Z,1007.97
2018-10-03T08:08:42.950Z,1007.95
2018-10-03T08:09:42.902Z,1007.97
2018-10-03T08:10:42.897Z,1007.99
2018-10-03T08:11:42.873Z,1007.97
2018-10-03T08:12:42.897Z,1007.88
2018-10-03T08:13:42.858Z,1007.95
2018-10-03T08:14:42.837Z,1008.02
2018-10-03T08:15:42.821Z,1008.02
2018-10-03T08:16:42.833Z,1008.14
2018-10-03T08:17:42.830Z,1008.16
2018-10-03T08:18:42.762Z,1008.14
2018-10-03T08:19:42.765Z,1008.10
2018-10-03T08:20:42.736Z,1008.16
2018-10-03T08:21:42.732Z,1008.18
2018-10-03T08:22:42.784Z,1008.21
2018-10-03T08:23:42.691Z,1008.26
2018-10-03T08:24:42.712Z,1008.34
2018-10-03T08:25:42.665Z,1008.24
2018-10-03T08:26:42.639Z,1008.22
2018-10-03T08:27:42.626Z,1008.20
2018-10-03T08:28:42.632Z,1008.24
2018-10-03T08:29:42.606Z,1008.30
2018-10-03T08:30:42.599Z,1008.29
2018-10-03T08:31:42.585Z,1008.34
2018-10-03T08:32:42.699Z,1008.33
2018-10-03T08:33:42.565Z,1008.39
2018-10-03T08:34:42.525Z,1008.45
2018-10-03T08:35:42.506Z,1008.34
2018-10-03T08:36:42.505Z,1008.33
2018-10-03T08:37:42.479Z,1008.39
2018-10-03T08:38:42.566Z,1008.47
2018-10-03T08:39:42.454Z,1008.39
2018-10-03T08:40:42.433Z,1008.51
2018-10-03T08:41:42.420Z,1008.48
2018-10-03T08:42:42.411Z,1008.46
2018-10-03T08:43:42.390Z,1008.48
2018-10-03T08:44:42.400Z,1008.49
2018-10-03T08:45:42.417Z,1008.45
2018-10-03T08:46:42.342Z,1008.54
2018-10-03T08:47:42.339Z,1008.60
2018-10-03T08:48:42.328Z,1008.62
2018-10-03T08:49:42.292Z,1008.59
2018-10-03T08:50:42.328Z,1008.60
2018-10-03T08:51:42.335Z,1008.64
2018-10-03T08:52:42.255Z,1008.73
2018-10-03T08:53:42.235Z,1008.66
2018-10-03T08:54:42.238Z,1008.75
2018-10-03T08:55:42.213Z,1008.78
2018-10-03T08:56:42.195Z,1008.83
2018-10-03T08:57:42.179Z,1008.93
2018-10-03T08:58:42.169Z,1008.87
2018-10-03T08:59:42.159Z,1008.84
2018-10-03T09:01:25.865Z,1008.92
2018-10-03T09:01:42.119Z,1008.83
2018-10-03T09:02:42.141Z,1008.89
2018-10-03T09:03:42.090Z,1008.88
2018-10-03T09:04:42.074Z,1008.85
2018-10-03T09:05:42.059Z,1008.85
2018-10-03T09:06:42.061Z,1008.90
2018-10-03T09:07:42.048Z,1009.00
2018-10-03T09:08:42.032Z,1008.96
2018-10-03T09:09:41.999Z,1008.98
2018-10-03T09:10:41.990Z,1009.03
2018-10-03T09:11:42.046Z,1009.06
2018-10-03T09:12:41.969Z,1009.08
2018-10-03T09:13:41.986Z,1009.09
2018-10-03T09:14:41.992Z,1009.11
2018-10-03T09:15:41.917Z,1009.09
2018-10-03T09:16:41.900Z,1009.09
2018-10-03T09:17:41.972Z,1009.19
2018-10-03T09:18:41.875Z,1009.13
2018-10-03T09:19:41.867Z,1009.26
2018-10-03T09:20:41.848Z,1009.22
2018-10-03T09:21:42.190Z,1009.22
2018-10-03T09:22:41.824Z,1009.22
2018-10-03T09:23:41.835Z,1009.28
2018-10-03T09:24:41.791Z,1009.21
2018-10-03T09:25:41.782Z,1009.31
2018-10-03T09:26:41.770Z,1009.34
2018-10-03T09:27:41.750Z,1009.38
2018-10-03T09:28:41.770Z,1009.25
2018-10-03T09:29:41.726Z,1009.29
2018-10-03T09:30:41.702Z,1009.43
2018-10-03T09:31:41.685Z,1009.41
2018-10-03T09:32:41.673Z,1009.32
2018-10-03T09:33:41.694Z,1009.40
2018-10-03T09:34:41.693Z,1009.31
2018-10-03T09:35:41.633Z,1009.27
2018-10-03T09:36:41.615Z,1009.24
2018-10-03T09:37:41.613Z,1009.35
2018-10-03T09:38:41.595Z,1009.36
2018-10-03T09:39:41.627Z,1009.38
2018-10-03T09:40:41.564Z,1009.36
2018-10-03T09:41:41.555Z,1009.23
2018-10-03T09:42:41.538Z,1009.28
2018-10-03T09:43:41.555Z,1009.39
2018-10-03T09:44:41.562Z,1009.40
2018-10-03T09:45:41.488Z,1009.34
2018-10-03T09:46:41.479Z,1009.45
2018-10-03T09:47:41.465Z,1009.47
2018-10-03T09:48:41.452Z,1009.48
2018-10-03T09:49:41.497Z,1009.48
2018-10-03T09:50:41.661Z,1009.61
2018-10-03T09:51:41.404Z,1009.56
2018-10-03T09:52:41.434Z,1009.56
2018-10-03T09:53:41.369Z,1009.64
2018-10-03T09:54:41.356Z,1009.59
2018-10-03T09:55:41.371Z,1009.57
2018-10-03T09:56:41.331Z,1009.64
2018-10-03T09:57:41.322Z,1009.64
2018-10-03T09:58:41.295Z,1009.66
2018-10-03T09:59:41.292Z,1009.63
2018-10-03T10:00:41.375Z,1009.75
2018-10-03T10:01:41.257Z,1009.72
2018-10-03T10:02:41.247Z,1009.78
2018-10-03T10:03:41.248Z,1009.77
2018-10-03T10:04:41.225Z,1009.79
2018-10-03T10:05:41.212Z,1009.76
2018-10-03T10:06:41.217Z,1009.75
2018-10-03T10:07:41.172Z,1009.69
2018-10-03T10:08:41.161Z,1009.68
2018-10-03T10:09:41.147Z,1009.70
2018-10-03T10:10:41.173Z,1009.72
2018-10-03T10:11:41.400Z,1009.61
2018-10-03T10:12:41.105Z,1009.67
2018-10-03T10:13:41.101Z,1009.81
2018-10-03T10:14:41.084Z,1009.77
2018-10-03T10:15:41.076Z,1009.74
2018-10-03T10:16:41.062Z,1009.71
2018-10-03T10:17:41.063Z,1009.65
2018-10-03T10:18:41.026Z,1009.75
2018-10-03T10:19:41.011Z,1009.74
2018-10-03T10:20:41.074Z,1009.80
2018-10-03T10:21:41.021Z,1009.68
2018-10-03T10:22:40.968Z,1009.74
2018-10-03T10:23:41.019Z,1009.76
2018-10-03T10:24:40.939Z,1009.72
2018-10-03T10:25:40.945Z,1009.77
2018-10-03T10:26:40.930Z,1009.69
2018-10-03T10:27:40.958Z,1009.80
2018-10-03T10:28:40.912Z,1009.86
2018-10-03T10:29:40.874Z,1009.77
2018-10-03T10:30:40.915Z,1009.95
2018-10-03T10:31:40.934Z,1009.91
2018-10-03T10:32:40.932Z,1009.88
2018-10-03T10:33:40.848Z,1009.99
2018-10-03T10:34:40.822Z,1009.97
2018-10-03T10:35:40.799Z,1009.92
2018-10-03T10:36:40.779Z,1009.96
2018-10-03T10:37:40.776Z,1010.04
2018-10-03T10:38:40.793Z,1009.99
2018-10-03T10:39:40.748Z,1010.19
2018-10-03T10:40:40.919Z,1010.01
2018-10-03T10:41:40.744Z,1009.94
2018-10-03T10:42:40.693Z,1010.03
2018-10-03T10:43:40.730Z,1010.01
2018-10-03T10:44:40.675Z,1010.05
2018-10-03T10:45:40.659Z,1009.99
2018-10-03T10:46:40.704Z,1010.15
2018-10-03T10:47:40.629Z,1010.11
2018-10-03T10:48:40.648Z,1010.10
2018-10-03T10:49:40.607Z,1010.26
2018-10-03T10:50:40.582Z,1010.22
2018-10-03T10:51:40.620Z,1010.17
2018-10-03T10:52:40.586Z,1010.14
2018-10-03T10:53:40.562Z,1010.13
2018-10-03T10:54:40.546Z,1010.11
2018-10-03T10:55:41.156Z,1010.18
2018-10-03T10:56:40.541Z,1010.23
2018-10-03T10:57:40.494Z,1010.17
2018-10-03T10:58:40.505Z,1010.05
2018-10-03T10:59:40.493Z,1010.10
2018-10-03T11:00:40.460Z,1010.11
2018-10-03T11:01:40.441Z,1010.21
2018-10-03T11:02:40.420Z,1010.13
2018-10-03T11:03:40.453Z,1010.21
2018-10-03T11:04:40.416Z,1010.21
2018-10-03T11:05:40.399Z,1010.17
2018-10-03T11:06:40.428Z,1010.13
2018-10-03T11:07:40.354Z,1010.16
2018-10-03T11:08:40.398Z,1010.15
2018-10-03T11:09:40.322Z,1010.18
2018-10-03T11:10:40.321Z,1010.17
2018-10-03T11:11:40.297Z,1010.21
2018-10-03T11:12:40.293Z,1010.18
2018-10-03T11:13:40.285Z,1010.21
2018-10-03T11:14:40.261Z,1010.31
2018-10-03T11:15:40.306Z,1010.27
2018-10-03T11:16:40.250Z,1010.33
2018-10-03T11:17:40.220Z,1010.26
2018-10-03T11:18:40.265Z,1010.25
2018-10-03T11:19:40.985Z,1010.29
2018-10-03T11:20:40.166Z,1010.22
2018-10-03T11:21:40.171Z,1010.30
2018-10-03T11:22:40.140Z,1010.37
2018-10-03T11:23:40.225Z,1010.35
2018-10-03T11:24:40.370Z,1010.35
2018-10-03T11:25:40.107Z,1010.38
2018-10-03T11:26:40.702Z,1010.36
2018-10-03T11:27:40.080Z,1010.39
2018-10-03T11:28:40.077Z,1010.42
2018-10-03T11:29:40.057Z,1010.42
2018-10-03T11:30:40.059Z,1010.41
2018-10-03T11:31:40.018Z,1010.40
2018-10-03T11:32:40.011Z,1010.44
2018-10-03T11:33:40.065Z,1010.31
2018-10-03T11:34:39.987Z,1010.37
2018-10-03T11:35:40.372Z,1010.24
2018-10-03T11:36:40.663Z,1010.33
2018-10-03T11:37:40.422Z,1010.35
2018-10-03T11:38:40.415Z,1010.39
2018-10-03T11:39:39.919Z,1010.49
2018-10-03T11:40:39.898Z,1010.45
2018-10-03T11:41:40.383Z,1010.32
2018-10-03T11:42:40.434Z,1010.24
2018-10-03T11:43:39.898Z,1010.43
2018-10-03T11:44:39.842Z,1010.42
2018-10-03T11:45:39.910Z,1010.45
2018-10-03T11:46:39.822Z,1010.41
2018-10-03T11:47:39.823Z,1010.49
2018-10-03T11:48:39.809Z,1010.52
2018-10-03T11:49:39.793Z,1010.48
2018-10-03T11:50:39.851Z,1010.48
2018-10-03T11:51:39.792Z,1010.54
2018-10-03T11:52:39.757Z,1010.58
2018-10-03T11:53:39.758Z,1010.45
2018-10-03T11:54:40.304Z,1010.50
2018-10-03T11:55:39.812Z,1010.62
2018-10-03T11:56:39.933Z,1010.60
2018-10-03T11:57:39.670Z,1010.59
2018-10-03T11:58:39.962Z,1010.65
2018-10-03T11:59:39.713Z,1010.61
2018-10-03T12:00:39.651Z,1010.71
2018-10-03T12:01:39.746Z,1010.55
2018-10-03T12:02:39.822Z,1010.63
2018-10-03T12:03:39.598Z,1010.67
2018-10-03T12:04:39.590Z,1010.63
2018-10-03T12:05:39.758Z,1010.61